Observation data for Plains on 07/10/2020      Previous  Date  Next       Current Mesonet Observations  Soil Data  Daily Summary Page  Observations in Plain Language
KPPS 100500Z 15015KT 31/13 A2997 RMK A01 T03110125  RH  033%=      5-min Rain = 0
KPPS 100505Z 15014G20KT 31/12 A2997 RMK A01 T03100124  RH  033%=      5-min Rain = 0
KPPS 100510Z 15013G18KT 31/13 A2997 RMK A01 T03090125  RH  034%=      5-min Rain = 0
KPPS 100515Z 15012G18KT 31/13 A2998 RMK A01 T03070125  RH  034%=      5-min Rain = 0
KPPS 100520Z 15012KT 31/13 A2998 RMK A01 T03050126  RH  035%=      5-min Rain = 0
KPPS 100525Z 14012KT 30/13 A2999 RMK A01 T03030126  RH  035%=      5-min Rain = 0
KPPS 100530Z 14012KT 30/13 A2999 RMK A01 T03000126  RH  036%=      5-min Rain = 0
KPPS 100535Z 14012KT 30/13 A2999 RMK A01 T02980127  RH  036%=      5-min Rain = 0
KPPS 100540Z 15012KT 30/13 A2999 RMK A01 T02970127  RH  037%=      5-min Rain = 0
KPPS 100545Z 16013KT 30/13 A2998 RMK A01 T02960128  RH  037%=      5-min Rain = 0
KPPS 100550Z 16012KT 30/13 A2999 RMK A01 T02960129  RH  037%=      5-min Rain = 0
KPPS 100555Z 16012KT 30/13 A2999 RMK A01 T02960130  RH  038%=      5-min Rain = 0
KPPS 100600Z 16012KT 29/13 A2999 RMK A01 T02940130  RH  038%=      5-min Rain = 0
KPPS 100605Z 16011KT 29/13 A2999 RMK A01 T02920131  RH  039%=      5-min Rain = 0
KPPS 100610Z 16009KT 29/13 A2999 RMK A01 T02910132  RH  039%=      5-min Rain = 0
KPPS 100615Z 17009KT 29/13 A2999 RMK A01 T02890133  RH  040%=      5-min Rain = 0
KPPS 100620Z 17010KT 29/14 A2999 RMK A01 T02880135  RH  041%=      5-min Rain = 0
KPPS 100625Z 17012G20KT 29/14 A2999 RMK A01 T02910140  RH  041%=      5-min Rain = 0
KPPS 100630Z 17017G24KT 30/15 A2999 RMK A01 T02960147  RH  042%=      5-min Rain = 0
KPPS 100635Z 18016KT 30/15 A2999 RMK A01 T02970150  RH  043%=      5-min Rain = 0
KPPS 100640Z 18014KT 30/15 A2999 RMK A01 T02960152  RH  044%=      5-min Rain = 0
KPPS 100645Z 18013KT 29/15 A2999 RMK A01 T02940153  RH  044%=      5-min Rain = 0
KPPS 100650Z 18014G19KT 29/15 A2999 RMK A01 T02930154  RH  045%=      5-min Rain = 0
KPPS 100655Z 18014G20KT 29/16 A2999 RMK A01 T02920155  RH  045%=      5-min Rain = 0
KPPS 100700Z 18015KT 29/16 A2999 RMK A01 T02920156  RH  046%=      5-min Rain = 0
KPPS 100705Z 18018KT 29/16 A2999 RMK A01 T02910158  RH  047%=      5-min Rain = 0
KPPS 100710Z 19016G21KT 29/16 A2999 RMK A01 T02900158  RH  047%=      5-min Rain = 0
KPPS 100715Z 19014G21KT 29/16 A2999 RMK A01 T02880159  RH  048%=      5-min Rain = 0
KPPS 100720Z 19012KT 29/16 A30 RMK A01 T02860160  RH  048%=      5-min Rain = 0
KPPS 100725Z 19013G18KT 29/16 A3001 RMK A01 T02850160  RH  049%=      5-min Rain = 0
KPPS 100730Z 18014KT 28/16 A3001 RMK A01 T02840161  RH  049%=      5-min Rain = 0
KPPS 100735Z 18013KT 28/16 A30 RMK A01 T02840162  RH  050%=      5-min Rain = 0
KPPS 100740Z 19014G20KT 28/16 A30 RMK A01 T02830162  RH  050%=      5-min Rain = 0
KPPS 100745Z 18014KT 28/16 A30 RMK A01 T02820162  RH  051%=      5-min Rain = 0
KPPS 100750Z 18013KT 28/16 A30 RMK A01 T02810163  RH  051%=      5-min Rain = 0
KPPS 100755Z 18011KT 28/16 A3001 RMK A01 T02800163  RH  051%=      5-min Rain = 0
KPPS 100800Z 18011KT 28/16 A3001 RMK A01 T02800163  RH  051%=      5-min Rain = 0
KPPS 100805Z 18012G17KT 28/16 A3001 RMK A01 T02800163  RH  052%=      5-min Rain = 0
KPPS 100810Z 17011KT 28/16 A3002 RMK A01 T02800164  RH  052%=      5-min Rain = 0
KPPS 100815Z 18011KT 28/16 A3001 RMK A01 T02790163  RH  052%=      5-min Rain = 0
KPPS 100820Z 18012G17KT 28/16 A3001 RMK A01 T02780163  RH  052%=      5-min Rain = 0
KPPS 100825Z 19011G16KT 28/16 A3001 RMK A01 T02770163  RH  052%=      5-min Rain = 0
KPPS 100830Z 19012G17KT 28/16 A3001 RMK A01 T02760163  RH  053%=      5-min Rain = 0
KPPS 100835Z 19013KT 28/16 A3001 RMK A01 T02760163  RH  053%=      5-min Rain = 0
KPPS 100840Z 19012KT 28/16 A3001 RMK A01 T02750163  RH  053%=      5-min Rain = 0
KPPS 100845Z 20011G16KT 27/16 A3001 RMK A01 T02740163  RH  053%=      5-min Rain = 0
KPPS 100850Z 21012G17KT 27/16 A3001 RMK A01 T02730162  RH  053%=      5-min Rain = 0
KPPS 100855Z 20011KT 27/16 A3001 RMK A01 T02710162  RH  054%=      5-min Rain = 0
KPPS 100900Z 20011KT 27/16 A3001 RMK A01 T02700162  RH  054%=      5-min Rain = 0
KPPS 100905Z 19010KT 27/16 A3001 RMK A01 T02680162  RH  055%=      5-min Rain = 0
KPPS 100910Z 20009KT 27/16 A3001 RMK A01 T02670161  RH  055%=      5-min Rain = 0
KPPS 100915Z 21011KT 27/16 A3001 RMK A01 T02680161  RH  055%=      5-min Rain = 0
KPPS 100920Z 20010G15KT 27/16 A3001 RMK A01 T02680162  RH  055%=      5-min Rain = 0
KPPS 100925Z 19011KT 27/16 A3001 RMK A01 T02680162  RH  055%=      5-min Rain = 0
KPPS 100930Z 19010KT 27/16 A3002 RMK A01 T02680162  RH  055%=      5-min Rain = 0
KPPS 100935Z 19008KT 27/16 A3002 RMK A01 T02670162  RH  055%=      5-min Rain = 0
KPPS 100940Z 19008KT 27/16 A3002 RMK A01 T02660162  RH  056%=      5-min Rain = 0
KPPS 100945Z 18008KT 27/16 A3002 RMK A01 T02650162  RH  056%=      5-min Rain = 0
KPPS 100950Z 17007KT 26/16 A3002 RMK A01 T02630162  RH  056%=      5-min Rain = 0
KPPS 100955Z 17007KT 26/16 A3003 RMK A01 T02630162  RH  057%=      5-min Rain = 0
KPPS 101000Z 17007KT 26/16 A3003 RMK A01 T02620162  RH  057%=      5-min Rain = 0
KPPS 101005Z 17007KT 26/16 A3003 RMK A01 T02610162  RH  057%=      5-min Rain = 0
KPPS 101010Z 17007KT 26/16 A3003 RMK A01 T02600162  RH  057%=      5-min Rain = 0
KPPS 101015Z 19006KT 26/16 A3004 RMK A01 T02600163  RH  058%=      5-min Rain = 0
KPPS 101020Z 19007KT 26/16 A3004 RMK A01 T02590162  RH  058%=      5-min Rain = 0
KPPS 101025Z 17008KT 26/16 A3004 RMK A01 T02580163  RH  058%=      5-min Rain = 0
KPPS 101030Z 16008KT 26/16 A3004 RMK A01 T02570162  RH  059%=      5-min Rain = 0
KPPS 101035Z 17008KT 26/16 A3004 RMK A01 T02550162  RH  059%=      5-min Rain = 0
KPPS 101040Z 17009KT 25/16 A3004 RMK A01 T02540162  RH  060%=      5-min Rain = 0
KPPS 101045Z 17009KT 25/16 A3004 RMK A01 T02540163  RH  060%=      5-min Rain = 0
KPPS 101050Z 18008KT 25/16 A3004 RMK A01 T02520162  RH  060%=      5-min Rain = 0
KPPS 101055Z 18007KT 25/16 A3004 RMK A01 T02510162  RH  061%=      5-min Rain = 0
KPPS 101100Z 19008KT 25/16 A3004 RMK A01 T02500162  RH  061%=      5-min Rain = 0
KPPS 101105Z 19008KT 25/16 A3004 RMK A01 T02490163  RH  062%=      5-min Rain = 0
KPPS 101110Z 18008KT 25/16 A3004 RMK A01 T02480163  RH  062%=      5-min Rain = 0
KPPS 101115Z 18007KT 25/16 A3004 RMK A01 T02480163  RH  062%=      5-min Rain = 0
KPPS 101120Z 18007KT 25/16 A3004 RMK A01 T02460162  RH  062%=      5-min Rain = 0
KPPS 101125Z 19007KT 25/16 A3004 RMK A01 T02450162  RH  063%=      5-min Rain = 0
KPPS 101130Z 19007KT 25/16 A3004 RMK A01 T02460162  RH  062%=      5-min Rain = 0
KPPS 101135Z 18007KT 25/16 A3004 RMK A01 T02450163  RH  063%=      5-min Rain = 0
KPPS 101140Z 18008KT 25/16 A3005 RMK A01 T02450163  RH  063%=      5-min Rain = 0
KPPS 101145Z 18007KT 24/16 A3005 RMK A01 T02440162  RH  063%=      5-min Rain = 0
KPPS 101150Z 18008KT 24/16 A3005 RMK A01 T02430162  RH  064%=      5-min Rain = 0
KPPS 101155Z 17008KT 24/16 A3005 RMK A01 T02420162  RH  064%=      5-min Rain = 0
KPPS 101200Z 17008KT 24/16 A3005 RMK A01 T02420162  RH  064%=      5-min Rain = 0
KPPS 101205Z 17008KT 24/16 A3005 RMK A01 T02420162  RH  064%=      5-min Rain = 0
KPPS 101210Z 17008KT 24/16 A3005 RMK A01 T02420162  RH  064%=      5-min Rain = 0
KPPS 101215Z 17008KT 24/16 A3005 RMK A01 T02430162  RH  064%=      5-min Rain = 0
KPPS 101220Z 19008KT 24/16 A3006 RMK A01 T02440163  RH  063%=      5-min Rain = 0
KPPS 101225Z 20007KT 24/16 A3006 RMK A01 T02440163  RH  063%=      5-min Rain = 0
KPPS 101230Z 20006KT 25/16 A3006 RMK A01 T02450163  RH  063%=      5-min Rain = 0
KPPS 101235Z 20005KT 25/16 A3007 RMK A01 T02450163  RH  063%=      5-min Rain = 0
KPPS 101240Z 19006KT 25/16 A3007 RMK A01 T02450164  RH  064%=      5-min Rain = 0
KPPS 101245Z 18007KT 25/16 A3007 RMK A01 T02450164  RH  064%=      5-min Rain = 0
KPPS 101250Z 18008KT 25/16 A3007 RMK A01 T02460164  RH  063%=      5-min Rain = 0
KPPS 101255Z 18008KT 25/17 A3007 RMK A01 T02480165  RH  063%=      5-min Rain = 0
KPPS 101300Z 18008KT 25/17 A3007 RMK A01 T02500165  RH  062%=      5-min Rain = 0
KPPS 101305Z 19007KT 25/17 A3007 RMK A01 T02520166  RH  062%=      5-min Rain = 0
KPPS 101310Z 19008KT 26/17 A3007 RMK A01 T02570167  RH  060%=      5-min Rain = 0
KPPS 101315Z 19010G16KT 26/17 A3007 RMK A01 T02630168  RH  059%=      5-min Rain = 0
KPPS 101320Z 19013KT 27/17 A3007 RMK A01 T02690168  RH  057%=      5-min Rain = 0
KPPS 101325Z 18012KT 27/17 A3007 RMK A01 T02730169  RH  056%=      5-min Rain = 0
KPPS 101330Z 18013KT 27/17 A3007 RMK A01 T02740169  RH  055%=      5-min Rain = 0
KPPS 101335Z 19014KT 28/17 A3007 RMK A01 T02750169  RH  055%=      5-min Rain = 0
KPPS 101340Z 19014KT 28/17 A3007 RMK A01 T02770169  RH  054%=      5-min Rain = 0
KPPS 101345Z 18015KT 28/17 A3007 RMK A01 T02790169  RH  054%=      5-min Rain = 0
KPPS 101350Z 18014G19KT 28/17 A3008 RMK A01 T02810169  RH  053%=      5-min Rain = 0
KPPS 101355Z 18015KT 28/17 A3008 RMK A01 T02840169  RH  052%=      5-min Rain = 0
KPPS 101400Z 18015KT 29/17 A3008 RMK A01 T02850169  RH  052%=      5-min Rain = 0
KPPS 101405Z 19011KT 29/17 A3008 RMK A01 T02870169  RH  051%=      5-min Rain = 0
KPPS 101410Z 19012G17KT 28/17 A3008 RMK A01 T02830169  RH  053%=      5-min Rain = 0
KPPS 101415Z 19011KT 29/17 A3009 RMK A01 T02890170  RH  051%=      5-min Rain = 0
KPPS 101420Z 20010KT 29/17 A3009 RMK A01 T02910170  RH  051%=      5-min Rain = 0
KPPS 101425Z 22011KT 29/17 A3009 RMK A01 T02940170  RH  050%=      5-min Rain = 0
KPPS 101430Z 21011KT 30/17 A3009 RMK A01 T02950169  RH  049%=      5-min Rain = 0
KPPS 101435Z 22011KT 30/17 A3009 RMK A01 T03000169  RH  048%=      5-min Rain = 0
KPPS 101440Z 21012KT 30/17 A3009 RMK A01 T03000168  RH  048%=      5-min Rain = 0
KPPS 101445Z 22011KT 30/17 A3009 RMK A01 T03010169  RH  047%=      5-min Rain = 0
KPPS 101450Z 21012KT 30/17 A3009 RMK A01 T03040167  RH  046%=      5-min Rain = 0
KPPS 101455Z 21010KT 31/17 A3009 RMK A01 T03070168  RH  046%=      5-min Rain = 0
KPPS 101500Z 23009KT 31/17 A3009 RMK A01 T03100168  RH  045%=      5-min Rain = 0
KPPS 101505Z 21009G14KT 31/17 A3009 RMK A01 T03140166  RH  043%=      5-min Rain = 0
KPPS 101510Z 21010KT 31/17 A3008 RMK A01 T03140165  RH  043%=      5-min Rain = 0
KPPS 101515Z 21008G13KT 32/16 A3009 RMK A01 T03160164  RH  042%=      5-min Rain = 0
KPPS 101520Z 22009KT 32/16 A3009 RMK A01 T03200160  RH  040%=      5-min Rain = 0
KPPS 101525Z 21008KT 32/16 A3009 RMK A01 T03220162  RH  040%=      5-min Rain = 0
KPPS 101530Z 20008KT 32/16 A3009 RMK A01 T03230160  RH  040%=      5-min Rain = 0
KPPS 101535Z 21008KT 33/16 A3008 RMK A01 T03250155  RH  038%=      5-min Rain = 0
KPPS 101540Z 22009KT 33/15 A3008 RMK A01 T03310152  RH  036%=      5-min Rain = 0
KPPS 101545Z 23008KT 33/15 A3008 RMK A01 T03340152  RH  035%=      5-min Rain = 0
KPPS 101550Z 23008KT 34/15 A3008 RMK A01 T03370149  RH  034%=      5-min Rain = 0
KPPS 101555Z 23009KT 34/15 A3008 RMK A01 T03360146  RH  033%=      5-min Rain = 0
KPPS 101600Z 22009KT 34/15 A3008 RMK A01 T03370146  RH  033%=      5-min Rain = 0
KPPS 101605Z 23008KT 34/15 A3008 RMK A01 T03400147  RH  033%=      5-min Rain = 0
KPPS 101610Z 23009KT 35/14 A3008 RMK A01 T03460141  RH  030%=      5-min Rain = 0
KPPS 101615Z 24009KT 35/14 A3008 RMK A01 T03500136  RH  029%=      5-min Rain = 0
KPPS 101620Z 24010KT 35/13 A3008 RMK A01 T03520125  RH  026%=      5-min Rain = 0
KPPS 101625Z 24008G13KT 36/12 A3008 RMK A01 T03600124  RH  025%=      5-min Rain = 0
KPPS 101630Z 23010KT 36/12 A3008 RMK A01 T03590124  RH  025%=      5-min Rain = 0
KPPS 101635Z 23010KT 36/12 A3008 RMK A01 T03580119  RH  025%=      5-min Rain = 0
KPPS 101640Z 24011G17KT 36/11 A3009 RMK A01 T03600109  RH  023%=      5-min Rain = 0
KPPS 101645Z 24011G16KT 37/11 A3009 RMK A01 T03660106  RH  022%=      5-min Rain = 0
KPPS 101650Z 23011G17KT 37/09 A3009 RMK A01 T03650091  RH  020%=      5-min Rain = 0
KPPS 101655Z 23011KT 37/08 A3009 RMK A01 T03660082  RH  018%=      5-min Rain = 0
KPPS 101700Z 22010G15KT 37/09 A3009 RMK A01 T03670089  RH  019%=      5-min Rain = 0
KPPS 101705Z 22008KT 37/08 A3009 RMK A01 T03710077  RH  017%=      5-min Rain = 0
KPPS 101710Z 19011KT 38/06 A3009 RMK A01 T03750058  RH  015%=      5-min Rain = 0
KPPS 101715Z 24009G14KT 38/07 A3009 RMK A01 T03780065  RH  015%=      5-min Rain = 0
KPPS 101720Z 21009G14KT 38/06 A3009 RMK A01 T03790059  RH  014%=      5-min Rain = 0
KPPS 101725Z 21010G15KT 38/06 A3009 RMK A01 T03760061  RH  015%=      5-min Rain = 0
KPPS 101730Z 23008G16KT 38/06 A3009 RMK A01 T03780059  RH  015%=      5-min Rain = 0
KPPS 101735Z 21008G14KT 38/07 A3009 RMK A01 T03830070  RH  015%=      5-min Rain = 0
KPPS 101740Z 22008G15KT 38/06 A3008 RMK A01 T03810064  RH  015%=      5-min Rain = 0
KPPS 101745Z 19010G16KT 38/06 A3009 RMK A01 T03840055  RH  014%=      5-min Rain = 0
KPPS 101750Z 20010G16KT 39/06 A3009 RMK A01 T03890057  RH  013%=      5-min Rain = 0
KPPS 101755Z 22008G13KT 38/06 A3008 RMK A01 T03840060  RH  014%=      5-min Rain = 0
KPPS 101800Z 21010G16KT 39/07 A3008 RMK A01 T03850066  RH  015%=      5-min Rain = 0
KPPS 101805Z 19010G16KT 39/07 A3008 RMK A01 T03860070  RH  015%=      5-min Rain = 0
KPPS 101810Z 20009G15KT 39/07 A3008 RMK A01 T03920066  RH  014%=      5-min Rain = 0
KPPS 101815Z 20011G20KT 39/07 A3008 RMK A01 T03900068  RH  014%=      5-min Rain = 0
KPPS 101820Z 20009G19KT 39/07 A3008 RMK A01 T03880069  RH  015%=      5-min Rain = 0
KPPS 101825Z 20008G14KT 39/07 A3008 RMK A01 T03900066  RH  014%=      5-min Rain = 0
KPPS 101830Z 18010G15KT 39/06 A3008 RMK A01 T03920063  RH  014%=      5-min Rain = 0
KPPS 101835Z 18009G14KT 40/06 A3008 RMK A01 T03960057  RH  013%=      5-min Rain = 0
KPPS 101840Z 18007KT 40/07 A3007 RMK A01 T03960065  RH  014%=      5-min Rain = 0
KPPS 101845Z 22010G17KT 40/06 A3007 RMK A01 T03950060  RH  013%=      5-min Rain = 0
KPPS 101850Z 18012G17KT 40/05 A3007 RMK A01 T04020051  RH  012%=      5-min Rain = 0
KPPS 101855Z 18008G14KT 40/05 A3007 RMK A01 T03980054  RH  013%=      5-min Rain = 0
KPPS 101900Z 19011G16KT 40/05 A3007 RMK A01 T04000052  RH  012%=      5-min Rain = 0
KPPS 101905Z 23010G16KT 40/04 A3007 RMK A01 T03990043  RH  012%=      5-min Rain = 0
KPPS 101910Z 19008G14KT 40/05 A3007 RMK A01 T03980050  RH  012%=      5-min Rain = 0
KPPS 101915Z 16012KT 41/06 A3007 RMK A01 T04050056  RH  012%=      5-min Rain = 0
KPPS 101920Z 16010G16KT 40/05 A3007 RMK A01 T04040053  RH  012%=      5-min Rain = 0
KPPS 101925Z 16010G16KT 40/05 A3007 RMK A01 T04020050  RH  012%=      5-min Rain = 0
KPPS 101930Z 17011G16KT 41/06 A3007 RMK A01 T04070055  RH  012%=      5-min Rain = 0
KPPS 101935Z 15011G17KT 41/06 A3007 RMK A01 T04050059  RH  013%=      5-min Rain = 0
KPPS 101940Z 14012G19KT 41/06 A3007 RMK A01 T04060059  RH  012%=      5-min Rain = 0
KPPS 101945Z 16011G16KT 40/06 A3007 RMK A01 T04030061  RH  013%=      5-min Rain = 0
KPPS 101950Z 17007G14KT 40/06 A3007 RMK A01 T04020060  RH  013%=      5-min Rain = 0
KPPS 101955Z 16008G14KT 40/06 A3007 RMK A01 T04020059  RH  013%=      5-min Rain = 0
KPPS 102000Z 13010G15KT 40/06 A3006 RMK A01 T04020056  RH  012%=      5-min Rain = 0
KPPS 102005Z 12010KT 41/06 A3006 RMK A01 T04050058  RH  012%=      5-min Rain = 0
KPPS 102010Z 15012G17KT 41/06 A3006 RMK A01 T04080062  RH  013%=      5-min Rain = 0
KPPS 102015Z 18012G17KT 41/06 A3006 RMK A01 T04060060  RH  013%=      5-min Rain = 0
KPPS 102020Z 17005G13KT 40/06 A3006 RMK A01 T04020060  RH  013%=      5-min Rain = 0
KPPS 102025Z 15013G18KT 41/07 A3006 RMK A01 T04080068  RH  013%=      5-min Rain = 0
KPPS 102030Z 16013G20KT 41/07 A3006 RMK A01 T04080069  RH  013%=      5-min Rain = 0
KPPS 102035Z 16013KT 41/07 A3006 RMK A01 T04080067  RH  013%=      5-min Rain = 0
KPPS 102040Z 13011G17KT 41/06 A3006 RMK A01 T04080064  RH  013%=      5-min Rain = 0
KPPS 102045Z 16011G17KT 41/06 A3006 RMK A01 T04060064  RH  013%=      5-min Rain = 0
KPPS 102050Z 17005G10KT 41/06 A3006 RMK A01 T04090063  RH  013%=      5-min Rain = 0
KPPS 102055Z 17009G15KT 41/07 A3006 RMK A01 T04100071  RH  013%=      5-min Rain = 0
KPPS 102100Z 17010G25KT 42/07 A3006 RMK A01 T04150073  RH  013%=      5-min Rain = 0
KPPS 102105Z 15014G27KT 41/07 A3006 RMK A01 T04120070  RH  013%=      5-min Rain = 0
KPPS 102110Z 17011G17KT 41/07 A3006 RMK A01 T04100070  RH  013%=      5-min Rain = 0
KPPS 102115Z 18007G12KT 41/07 A3006 RMK A01 T04050070  RH  014%=      5-min Rain = 0
KPPS 102120Z 16006G14KT 40/07 A3006 RMK A01 T04040070  RH  014%=      5-min Rain = 0
KPPS 102125Z 15008G21KT 41/07 A3005 RMK A01 T04050074  RH  014%=      5-min Rain = 0
KPPS 102130Z 15009G14KT 40/08 A3005 RMK A01 T04040079  RH  015%=      5-min Rain = 0
KPPS 102135Z 17010KT 41/07 A3005 RMK A01 T04060074  RH  014%=      5-min Rain = 0
KPPS 102140Z 15008G14KT 41/08 A3005 RMK A01 T04090075  RH  014%=      5-min Rain = 0
KPPS 102145Z 17009G14KT 41/08 A3005 RMK A01 T04090076  RH  014%=      5-min Rain = 0
KPPS 102150Z 18010G15KT 41/08 A3005 RMK A01 T04090078  RH  014%=      5-min Rain = 0
KPPS 102155Z 17012KT 41/08 A3005 RMK A01 T04080076  RH  014%=      5-min Rain = 0
KPPS 102200Z 14013G19KT 41/08 A3005 RMK A01 T04100077  RH  014%=      5-min Rain = 0
KPPS 102205Z 14011G16KT 41/08 A3005 RMK A01 T04110076  RH  014%=      5-min Rain = 0
KPPS 102210Z 14012KT 41/08 A3005 RMK A01 T04080075  RH  014%=      5-min Rain = 0
KPPS 102215Z 13012G18KT 41/07 A3005 RMK A01 T04110074  RH  014%=      5-min Rain = 0
KPPS 102220Z 14011G17KT 41/08 A3004 RMK A01 T04060078  RH  014%=      5-min Rain = 0
KPPS 102225Z 17012G18KT 41/08 A3004 RMK A01 T04050081  RH  015%=      5-min Rain = 0
KPPS 102230Z 13015G20KT 41/08 A3004 RMK A01 T04080081  RH  014%=      5-min Rain = 0
KPPS 102235Z 14009G17KT 41/08 A3004 RMK A01 T04070081  RH  015%=      5-min Rain = 0
KPPS 102240Z 17013G20KT 41/08 A3004 RMK A01 T04090079  RH  014%=      5-min Rain = 0
KPPS 102245Z 14018G25KT 41/08 A3004 RMK A01 T04090084  RH  015%=      5-min Rain = 0
KPPS 102250Z 13016G24KT 40/09 A3004 RMK A01 T04000089  RH  016%=      5-min Rain = 0
KPPS 102255Z 15017G23KT 40/08 A3004 RMK A01 T04030080  RH  015%=      5-min Rain = 0
KPPS 102300Z 15015G20KT 40/08 A3004 RMK A01 T04030075  RH  014%=      5-min Rain = 0
KPPS 102305Z 13015G20KT 40/08 A3003 RMK A01 T04010084  RH  015%=      5-min Rain = 0
KPPS 102310Z 15016G23KT 40/08 A3003 RMK A01 T04030084  RH  015%=      5-min Rain = 0
KPPS 102315Z 15014G21KT 41/08 A3003 RMK A01 T04070083  RH  015%=      5-min Rain = 0
KPPS 102320Z 14018G25KT 41/09 A3003 RMK A01 T04050086  RH  015%=      5-min Rain = 0
KPPS 102325Z 14017G23KT 40/09 A3003 RMK A01 T04020086  RH  015%=      5-min Rain = 0
KPPS 102330Z 14017G26KT 40/08 A3003 RMK A01 T03990083  RH  015%=      5-min Rain = 0
KPPS 102335Z 13021G30KT 40/09 A3003 RMK A01 T04000085  RH  015%=      5-min Rain = 0
KPPS 102340Z 14023KT 39/09 A3003 RMK A01 T03930086  RH  016%=      5-min Rain = 0
KPPS 102345Z 13018G25KT 39/08 A3003 RMK A01 T03930083  RH  016%=      5-min Rain = 0
KPPS 102350Z 13019G28KT 39/08 A3003 RMK A01 T03940084  RH  016%=      5-min Rain = 0
KPPS 102355Z 15019G26KT 39/08 A3003 RMK A01 T03930084  RH  016%=      5-min Rain = 0
KPPS 110000Z 13019G26KT 39/09 A3003 RMK A01 T03930087  RH  016%=      5-min Rain = 0
KPPS 110005Z 14020G25KT 39/09 A3002 RMK A01 T03900088  RH  017%=      5-min Rain = 0
KPPS 110010Z 15018G23KT 39/09 A3003 RMK A01 T03910086  RH  016%=      5-min Rain = 0
KPPS 110015Z 14019G26KT 39/09 A3003 RMK A01 T03880087  RH  017%=      5-min Rain = 0
KPPS 110020Z 14020G25KT 39/08 A3003 RMK A01 T03860084  RH  017%=      5-min Rain = 0
KPPS 110025Z 14019G24KT 39/09 A3003 RMK A01 T03870086  RH  017%=      5-min Rain = 0
KPPS 110030Z 13018G24KT 39/09 A3003 RMK A01 T03860086  RH  017%=      5-min Rain = 0
KPPS 110035Z 13020G26KT 38/09 A3003 RMK A01 T03840087  RH  017%=      5-min Rain = 0
KPPS 110040Z 13019G24KT 38/09 A3003 RMK A01 T03830087  RH  017%=      5-min Rain = 0
KPPS 110045Z 13021G26KT 38/09 A3003 RMK A01 T03810088  RH  018%=      5-min Rain = 0
KPPS 110050Z 14018G23KT 38/09 A3003 RMK A01 T03800089  RH  018%=      5-min Rain = 0
KPPS 110055Z 14019G24KT 38/09 A3003 RMK A01 T03800090  RH  018%=      5-min Rain = 0
KPPS 110100Z 14020G26KT 38/09 A3003 RMK A01 T03780091  RH  018%=      5-min Rain = 0
KPPS 110105Z 14019G26KT 38/09 A3003 RMK A01 T03760091  RH  018%=      5-min Rain = 0
KPPS 110110Z 14016G23KT 38/09 A3003 RMK A01 T03750091  RH  019%=      5-min Rain = 0
KPPS 110115Z 14017G23KT 37/09 A3003 RMK A01 T03730091  RH  019%=      5-min Rain = 0
KPPS 110120Z 14019G24KT 37/09 A3003 RMK A01 T03710091  RH  019%=      5-min Rain = 0
KPPS 110125Z 14019KT 37/09 A3003 RMK A01 T03690089  RH  019%=      5-min Rain = 0
KPPS 110130Z 14017KT 37/09 A3003 RMK A01 T03680088  RH  019%=      5-min Rain = 0
KPPS 110135Z 14017KT 37/09 A3003 RMK A01 T03660087  RH  019%=      5-min Rain = 0
KPPS 110140Z 14017KT 36/09 A3003 RMK A01 T03640086  RH  019%=      5-min Rain = 0
KPPS 110145Z 14017G22KT 36/09 A3003 RMK A01 T03620085  RH  019%=      5-min Rain = 0
KPPS 110150Z 14016KT 36/09 A3004 RMK A01 T03600085  RH  019%=      5-min Rain = 0
KPPS 110155Z 14014KT 36/09 A3004 RMK A01 T03560085  RH  020%=      5-min Rain = 0
KPPS 110200Z 14014KT 35/09 A3004 RMK A01 T03540085  RH  020%=      5-min Rain = 0
KPPS 110205Z 14015G20KT 35/09 A3004 RMK A01 T03520085  RH  020%=      5-min Rain = 0
KPPS 110210Z 14014G19KT 35/09 A3004 RMK A01 T03500085  RH  020%=      5-min Rain = 0
KPPS 110215Z 14013KT 35/09 A3004 RMK A01 T03470087  RH  021%=      5-min Rain = 0
KPPS 110220Z 14014KT 35/09 A3004 RMK A01 T03450088  RH  021%=      5-min Rain = 0
KPPS 110225Z 14012KT 34/09 A3005 RMK A01 T03430089  RH  022%=      5-min Rain = 0
KPPS 110230Z 14012KT 34/09 A3005 RMK A01 T03410090  RH  022%=      5-min Rain = 0
KPPS 110235Z 14012KT 34/09 A3005 RMK A01 T03380093  RH  023%=      5-min Rain = 0
KPPS 110240Z 14012KT 34/10 A3005 RMK A01 T03360096  RH  024%=      5-min Rain = 0
KPPS 110245Z 14012KT 33/10 A3005 RMK A01 T03340099  RH  024%=      5-min Rain = 0
KPPS 110250Z 14011KT 33/10 A3005 RMK A01 T03320102  RH  025%=      5-min Rain = 0
KPPS 110255Z 14011KT 33/10 A3005 RMK A01 T03290104  RH  026%=      5-min Rain = 0
KPPS 110300Z 14011KT 33/11 A3005 RMK A01 T03270105  RH  027%=      5-min Rain = 0
KPPS 110305Z 14012KT 33/11 A3006 RMK A01 T03270107  RH  027%=      5-min Rain = 0
KPPS 110310Z 14012KT 33/11 A3006 RMK A01 T03250109  RH  028%=      5-min Rain = 0
KPPS 110315Z 14012KT 32/11 A3006 RMK A01 T03240112  RH  028%=      5-min Rain = 0
KPPS 110320Z 14012KT 32/11 A3006 RMK A01 T03230113  RH  029%=      5-min Rain = 0
KPPS 110325Z 14012KT 32/11 A3006 RMK A01 T03210114  RH  029%=      5-min Rain = 0
KPPS 110330Z 14013KT 32/11 A3006 RMK A01 T03210114  RH  029%=      5-min Rain = 0
KPPS 110335Z 14012G17KT 32/11 A3006 RMK A01 T03210114  RH  029%=      5-min Rain = 0
KPPS 110340Z 15013KT 32/11 A3007 RMK A01 T03210114  RH  029%=      5-min Rain = 0
KPPS 110345Z 15012KT 32/11 A3007 RMK A01 T03200113  RH  029%=      5-min Rain = 0
KPPS 110350Z 15013G18KT 32/11 A3007 RMK A01 T03200113  RH  029%=      5-min Rain = 0
KPPS 110355Z 15013KT 32/11 A3007 RMK A01 T03200113  RH  029%=      5-min Rain = 0
KPPS 110400Z 15011KT 32/11 A3007 RMK A01 T03180113  RH  029%=      5-min Rain = 0
KPPS 110405Z 15012KT 32/11 A3007 RMK A01 T03160113  RH  030%=      5-min Rain = 0
KPPS 110410Z 15012KT 31/11 A3007 RMK A01 T03140113  RH  030%=      5-min Rain = 0
KPPS 110415Z 15012KT 31/11 A3008 RMK A01 T03130113  RH  030%=      5-min Rain = 0
KPPS 110420Z 15012KT 31/11 A3008 RMK A01 T03120114  RH  031%=      5-min Rain = 0
KPPS 110425Z 15012KT 31/11 A3008 RMK A01 T03110114  RH  031%=      5-min Rain = 0
KPPS 110430Z 15012KT 31/12 A3008 RMK A01 T03110115  RH  031%=      5-min Rain = 0
KPPS 110435Z 15011KT 31/12 A3008 RMK A01 T03090117  RH  032%=      5-min Rain = 0
KPPS 110440Z 15011KT 31/12 A3008 RMK A01 T03070117  RH  032%=      5-min Rain = 0
KPPS 110445Z 14011KT 31/12 A3008 RMK A01 T03050118  RH  033%=      5-min Rain = 0
KPPS 110450Z 15011KT 30/12 A3008 RMK A01 T03030119  RH  033%=      5-min Rain = 0
KPPS 110455Z 15012KT 30/12 A3008 RMK A01 T03020120  RH  034%=      5-min Rain = 0

Page generated in 0.0268 seconds.